Warrenton, Texas
Current Conditions -  °F | °C
As of 5:55 AM on Friday 21 Nov 2014 (Local Time) from K3T5 Reporting Station
Haze Haze  
Wind Chill: 64°   Ceiling: 300
Heat Index: 64°   Visibility: 2.5mi
Dew Point: 64°   Wind: 0mph
Humidity: 99%   Direction: NA
Pressure: 30.06"   Gusts: NA
Location:  30.0108°N, 96.7162°W
Report Text: K3T5 211155Z AUTO 00000KT 2 1/2SM BR OVC003 18/18 A3006 RMK AO2 60002 70009 T01760175 10180 20172
Loading
Personal Weather Stations






























Interactive Weather Map New forecast layout! Learn more

10-Day Weather Forecast

Advertisements
Track Severe Weather on mobile